sensor_id;sensor_type;location;lat;lon;timestamp;P1;durP1;ratioP1;P2;durP2;ratioP2
52866;SDS011;38739;53.324;6.862;2023-02-13T00:00:31;26.98;;;18.08;;
52866;SDS011;38739;53.324;6.862;2023-02-13T00:02:58;27.38;;;17.17;;
52866;SDS011;38739;53.324;6.862;2023-02-13T00:05:24;28.65;;;17.83;;
52866;SDS011;38739;53.324;6.862;2023-02-13T00:07:49;27.95;;;18.52;;
52866;SDS011;38739;53.324;6.862;2023-02-13T00:10:15;27.63;;;17.95;;
52866;SDS011;38739;53.324;6.862;2023-02-13T00:12:41;26.08;;;17.48;;
52866;SDS011;38739;53.324;6.862;2023-02-13T00:15:07;29.55;;;18.38;;
52866;SDS011;38739;53.324;6.862;2023-02-13T00:17:36;27.60;;;18.30;;
52866;SDS011;38739;53.324;6.862;2023-02-13T00:20:02;27.08;;;18.00;;
52866;SDS011;38739;53.324;6.862;2023-02-13T00:22:33;28.90;;;17.45;;
52866;SDS011;38739;53.324;6.862;2023-02-13T00:24:59;29.83;;;17.90;;
52866;SDS011;38739;53.324;6.862;2023-02-13T00:27:25;28.45;;;18.45;;
52866;SDS011;38739;53.324;6.862;2023-02-13T00:29:51;28.67;;;18.00;;
52866;SDS011;38739;53.324;6.862;2023-02-13T00:32:16;27.92;;;18.15;;
52866;SDS011;38739;53.324;6.862;2023-02-13T00:34:42;28.00;;;18.08;;
52866;SDS011;38739;53.324;6.862;2023-02-13T00:37:09;28.45;;;18.65;;
52866;SDS011;38739;53.324;6.862;2023-02-13T00:39:35;30.55;;;18.77;;
52866;SDS011;38739;53.324;6.862;2023-02-13T00:42:00;28.63;;;17.35;;
52866;SDS011;38739;53.324;6.862;2023-02-13T00:44:26;29.02;;;18.92;;
52866;SDS011;38739;53.324;6.862;2023-02-13T00:46:52;29.60;;;18.52;;
52866;SDS011;38739;53.324;6.862;2023-02-13T00:49:17;30.45;;;18.23;;
52866;SDS011;38739;53.324;6.862;2023-02-13T00:51:43;28.55;;;18.13;;
52866;SDS011;38739;53.324;6.862;2023-02-13T00:54:09;31.58;;;19.40;;
52866;SDS011;38739;53.324;6.862;2023-02-13T00:56:34;31.73;;;19.23;;
52866;SDS011;38739;53.324;6.862;2023-02-13T00:59:00;28.98;;;18.85;;
52866;SDS011;38739;53.324;6.862;2023-02-13T01:01:26;28.83;;;18.15;;
52866;SDS011;38739;53.324;6.862;2023-02-13T01:03:51;28.95;;;18.73;;
52866;SDS011;38739;53.324;6.862;2023-02-13T01:06:17;26.95;;;17.90;;
52866;SDS011;38739;53.324;6.862;2023-02-13T01:08:43;27.63;;;17.63;;
52866;SDS011;38739;53.324;6.862;2023-02-13T01:11:08;29.23;;;17.80;;
52866;SDS011;38739;53.324;6.862;2023-02-13T01:13:34;26.50;;;17.40;;
52866;SDS011;38739;53.324;6.862;2023-02-13T01:16:00;26.92;;;17.35;;
52866;SDS011;38739;53.324;6.862;2023-02-13T01:18:26;27.48;;;18.17;;
52866;SDS011;38739;53.324;6.862;2023-02-13T01:20:59;27.92;;;17.50;;
52866;SDS011;38739;53.324;6.862;2023-02-13T01:23:30;29.67;;;17.90;;
52866;SDS011;38739;53.324;6.862;2023-02-13T01:26:02;26.50;;;17.17;;
52866;SDS011;38739;53.324;6.862;2023-02-13T01:28:28;28.63;;;18.52;;
52866;SDS011;38739;53.324;6.862;2023-02-13T01:30:54;30.45;;;18.42;;
52866;SDS011;38739;53.324;6.862;2023-02-13T01:33:23;26.30;;;17.67;;
52866;SDS011;38739;53.324;6.862;2023-02-13T01:35:51;26.60;;;17.63;;
52866;SDS011;38739;53.324;6.862;2023-02-13T01:38:17;30.58;;;18.85;;
52866;SDS011;38739;53.324;6.862;2023-02-13T01:40:50;28.20;;;17.75;;
52866;SDS011;38739;53.324;6.862;2023-02-13T01:43:18;29.52;;;17.90;;
52866;SDS011;38739;53.324;6.862;2023-02-13T01:45:47;28.08;;;17.42;;
52866;SDS011;38739;53.324;6.862;2023-02-13T01:48:24;27.00;;;17.33;;
52866;SDS011;38739;53.324;6.862;2023-02-13T01:50:53;28.42;;;18.08;;
52866;SDS011;38739;53.324;6.862;2023-02-13T01:53:27;28.95;;;18.65;;
52866;SDS011;38739;53.324;6.862;2023-02-13T01:55:56;28.85;;;18.48;;
52866;SDS011;38739;53.324;6.862;2023-02-13T01:58:47;28.00;;;17.90;;
52866;SDS011;38739;53.324;6.862;2023-02-13T02:01:16;28.77;;;18.10;;
52866;SDS011;38739;53.324;6.862;2023-02-13T02:03:47;29.00;;;18.50;;
52866;SDS011;38739;53.324;6.862;2023-02-13T02:06:20;33.25;;;18.80;;
52866;SDS011;38739;53.324;6.862;2023-02-13T02:08:50;28.35;;;18.08;;
52866;SDS011;38739;53.324;6.862;2023-02-13T02:11:24;29.77;;;18.50;;
52866;SDS011;38739;53.324;6.862;2023-02-13T02:13:59;26.83;;;17.35;;
52866;SDS011;38739;53.324;6.862;2023-02-13T02:16:28;30.73;;;19.00;;
52866;SDS011;38739;53.324;6.862;2023-02-13T02:18:55;31.02;;;18.35;;
52866;SDS011;38739;53.324;6.862;2023-02-13T02:21:32;29.65;;;17.33;;
52866;SDS011;38739;53.324;6.862;2023-02-13T02:24:46;28.63;;;18.42;;
52866;SDS011;38739;53.324;6.862;2023-02-13T02:36:06;31.88;;;19.08;;
52866;SDS011;38739;53.324;6.862;2023-02-13T02:41:39;27.88;;;17.27;;
52866;SDS011;38739;53.324;6.862;2023-02-13T03:01:05;32.17;;;19.25;;
52866;SDS011;38739;53.324;6.862;2023-02-13T03:03:51;29.77;;;18.67;;
52866;SDS011;38739;53.324;6.862;2023-02-13T03:06:45;32.03;;;18.85;;
52866;SDS011;38739;53.324;6.862;2023-02-13T03:09:25;33.90;;;19.42;;
52866;SDS011;38739;53.324;6.862;2023-02-13T03:12:15;31.45;;;18.77;;
52866;SDS011;38739;53.324;6.862;2023-02-13T03:15:03;31.52;;;18.88;;
52866;SDS011;38739;53.324;6.862;2023-02-13T03:17:29;30.75;;;19.02;;
52866;SDS011;38739;53.324;6.862;2023-02-13T03:23:13;31.73;;;19.35;;
52866;SDS011;38739;53.324;6.862;2023-02-13T03:25:46;31.42;;;18.58;;
52866;SDS011;38739;53.324;6.862;2023-02-13T03:34:25;32.15;;;19.48;;
52866;SDS011;38739;53.324;6.862;2023-02-13T03:37:16;31.15;;;19.10;;
52866;SDS011;38739;53.324;6.862;2023-02-13T03:40:06;29.05;;;18.13;;
52866;SDS011;38739;53.324;6.862;2023-02-13T03:42:41;29.35;;;18.55;;
52866;SDS011;38739;53.324;6.862;2023-02-13T03:45:29;31.33;;;18.92;;
52866;SDS011;38739;53.324;6.862;2023-02-13T03:48:34;31.08;;;18.95;;
52866;SDS011;38739;53.324;6.862;2023-02-13T03:56:35;33.33;;;19.20;;
52866;SDS011;38739;53.324;6.862;2023-02-13T03:59:30;32.63;;;19.05;;
52866;SDS011;38739;53.324;6.862;2023-02-13T04:07:24;32.75;;;18.83;;
52866;SDS011;38739;53.324;6.862;2023-02-13T04:10:04;32.38;;;18.63;;
52866;SDS011;38739;53.324;6.862;2023-02-13T04:12:44;32.65;;;18.63;;
52866;SDS011;38739;53.324;6.862;2023-02-13T04:15:18;29.10;;;17.77;;
52866;SDS011;38739;53.324;6.862;2023-02-13T04:18:02;30.90;;;18.00;;
52866;SDS011;38739;53.324;6.862;2023-02-13T04:20:34;28.23;;;18.05;;
52866;SDS011;38739;53.324;6.862;2023-02-13T04:23:06;32.70;;;19.45;;
52866;SDS011;38739;53.324;6.862;2023-02-13T04:25:40;32.65;;;19.77;;
52866;SDS011;38739;53.324;6.862;2023-02-13T04:28:08;32.63;;;19.80;;
52866;SDS011;38739;53.324;6.862;2023-02-13T04:30:34;32.35;;;19.10;;
52866;SDS011;38739;53.324;6.862;2023-02-13T04:32:59;33.33;;;19.52;;
52866;SDS011;38739;53.324;6.862;2023-02-13T04:35:25;31.40;;;19.02;;
52866;SDS011;38739;53.324;6.862;2023-02-13T04:37:54;31.52;;;18.83;;
52866;SDS011;38739;53.324;6.862;2023-02-13T04:40:19;32.20;;;19.17;;
52866;SDS011;38739;53.324;6.862;2023-02-13T04:42:48;29.38;;;18.40;;
52866;SDS011;38739;53.324;6.862;2023-02-13T04:45:14;30.30;;;18.73;;
52866;SDS011;38739;53.324;6.862;2023-02-13T04:47:40;32.65;;;19.67;;
52866;SDS011;38739;53.324;6.862;2023-02-13T04:50:06;31.98;;;19.52;;
52866;SDS011;38739;53.324;6.862;2023-02-13T04:52:32;30.90;;;18.40;;
52866;SDS011;38739;53.324;6.862;2023-02-13T04:55:01;31.98;;;19.25;;
52866;SDS011;38739;53.324;6.862;2023-02-13T04:57:27;34.65;;;19.90;;
52866;SDS011;38739;53.324;6.862;2023-02-13T04:59:52;30.65;;;18.65;;
52866;SDS011;38739;53.324;6.862;2023-02-13T05:02:18;31.65;;;18.90;;
52866;SDS011;38739;53.324;6.862;2023-02-13T05:04:46;31.42;;;18.98;;
52866;SDS011;38739;53.324;6.862;2023-02-13T05:07:12;33.35;;;19.25;;
52866;SDS011;38739;53.324;6.862;2023-02-13T05:09:37;32.75;;;20.25;;
52866;SDS011;38739;53.324;6.862;2023-02-13T05:12:14;34.92;;;20.42;;
52866;SDS011;38739;53.324;6.862;2023-02-13T05:14:39;32.80;;;18.90;;
52866;SDS011;38739;53.324;6.862;2023-02-13T05:17:05;30.58;;;18.50;;
52866;SDS011;38739;53.324;6.862;2023-02-13T05:19:31;33.17;;;19.60;;
52866;SDS011;38739;53.324;6.862;2023-02-13T05:21:57;32.38;;;18.98;;
52866;SDS011;38739;53.324;6.862;2023-02-13T05:24:41;30.98;;;18.90;;
52866;SDS011;38739;53.324;6.862;2023-02-13T05:27:06;30.85;;;18.67;;
52866;SDS011;38739;53.324;6.862;2023-02-13T05:29:35;31.92;;;19.85;;
52866;SDS011;38739;53.324;6.862;2023-02-13T05:32:01;29.45;;;18.42;;
52866;SDS011;38739;53.324;6.862;2023-02-13T05:34:27;33.70;;;19.40;;
52866;SDS011;38739;53.324;6.862;2023-02-13T05:36:54;32.13;;;19.90;;
52866;SDS011;38739;53.324;6.862;2023-02-13T05:39:20;30.73;;;18.60;;
52866;SDS011;38739;53.324;6.862;2023-02-13T05:41:49;34.72;;;19.73;;
52866;SDS011;38739;53.324;6.862;2023-02-13T05:44:15;33.50;;;18.65;;
52866;SDS011;38739;53.324;6.862;2023-02-13T05:46:41;34.22;;;19.45;;
52866;SDS011;38739;53.324;6.862;2023-02-13T05:49:08;31.67;;;19.85;;
52866;SDS011;38739;53.324;6.862;2023-02-13T05:51:35;31.42;;;19.30;;
52866;SDS011;38739;53.324;6.862;2023-02-13T05:54:01;34.00;;;20.13;;
52866;SDS011;38739;53.324;6.862;2023-02-13T05:56:27;29.52;;;18.17;;
52866;SDS011;38739;53.324;6.862;2023-02-13T05:58:53;34.47;;;19.58;;
52866;SDS011;38739;53.324;6.862;2023-02-13T06:01:20;31.65;;;18.98;;
52866;SDS011;38739;53.324;6.862;2023-02-13T06:03:47;33.30;;;19.52;;
52866;SDS011;38739;53.324;6.862;2023-02-13T06:06:13;32.30;;;19.30;;
52866;SDS011;38739;53.324;6.862;2023-02-13T06:08:39;34.33;;;19.67;;
52866;SDS011;38739;53.324;6.862;2023-02-13T06:11:05;35.40;;;20.45;;
52866;SDS011;38739;53.324;6.862;2023-02-13T06:13:31;37.08;;;19.95;;
52866;SDS011;38739;53.324;6.862;2023-02-13T06:15:56;34.67;;;20.23;;
52866;SDS011;38739;53.324;6.862;2023-02-13T06:18:22;34.67;;;19.17;;
52866;SDS011;38739;53.324;6.862;2023-02-13T06:20:48;34.42;;;19.25;;
52866;SDS011;38739;53.324;6.862;2023-02-13T06:23:17;34.67;;;20.50;;
52866;SDS011;38739;53.324;6.862;2023-02-13T06:25:45;33.80;;;19.55;;
52866;SDS011;38739;53.324;6.862;2023-02-13T06:28:10;36.78;;;20.48;;
52866;SDS011;38739;53.324;6.862;2023-02-13T06:30:36;36.63;;;20.20;;
52866;SDS011;38739;53.324;6.862;2023-02-13T06:33:02;36.97;;;20.70;;
52866;SDS011;38739;53.324;6.862;2023-02-13T06:35:28;34.72;;;20.60;;
52866;SDS011;38739;53.324;6.862;2023-02-13T06:37:53;35.38;;;19.95;;
52866;SDS011;38739;53.324;6.862;2023-02-13T06:40:19;36.88;;;21.05;;
52866;SDS011;38739;53.324;6.862;2023-02-13T06:42:45;35.75;;;19.65;;
52866;SDS011;38739;53.324;6.862;2023-02-13T06:45:11;33.45;;;20.15;;
52866;SDS011;38739;53.324;6.862;2023-02-13T06:47:43;36.15;;;21.05;;
52866;SDS011;38739;53.324;6.862;2023-02-13T06:50:11;34.53;;;19.85;;
52866;SDS011;38739;53.324;6.862;2023-02-13T06:52:38;33.15;;;20.00;;
52866;SDS011;38739;53.324;6.862;2023-02-13T06:55:04;37.70;;;19.88;;
52866;SDS011;38739;53.324;6.862;2023-02-13T06:57:30;32.30;;;19.75;;
52866;SDS011;38739;53.324;6.862;2023-02-13T06:59:57;33.65;;;19.88;;
52866;SDS011;38739;53.324;6.862;2023-02-13T07:02:24;33.58;;;19.95;;
52866;SDS011;38739;53.324;6.862;2023-02-13T07:04:50;33.55;;;20.42;;
52866;SDS011;38739;53.324;6.862;2023-02-13T07:07:15;34.83;;;20.02;;
52866;SDS011;38739;53.324;6.862;2023-02-13T07:09:41;32.85;;;19.58;;
52866;SDS011;38739;53.324;6.862;2023-02-13T07:12:06;36.03;;;19.95;;
52866;SDS011;38739;53.324;6.862;2023-02-13T07:14:35;31.73;;;19.30;;
52866;SDS011;38739;53.324;6.862;2023-02-13T07:17:01;30.55;;;18.77;;
52866;SDS011;38739;53.324;6.862;2023-02-13T07:19:26;34.80;;;20.45;;
52866;SDS011;38739;53.324;6.862;2023-02-13T07:21:52;37.83;;;21.30;;
52866;SDS011;38739;53.324;6.862;2023-02-13T07:24:18;35.97;;;20.40;;
52866;SDS011;38739;53.324;6.862;2023-02-13T07:26:43;37.40;;;21.15;;
52866;SDS011;38739;53.324;6.862;2023-02-13T07:29:09;41.03;;;20.85;;
52866;SDS011;38739;53.324;6.862;2023-02-13T07:31:35;38.05;;;20.85;;
52866;SDS011;38739;53.324;6.862;2023-02-13T07:34:01;38.15;;;20.85;;
52866;SDS011;38739;53.324;6.862;2023-02-13T07:36:27;35.38;;;20.60;;
52866;SDS011;38739;53.324;6.862;2023-02-13T07:38:52;34.85;;;20.33;;
52866;SDS011;38739;53.324;6.862;2023-02-13T07:41:18;37.25;;;20.50;;
52866;SDS011;38739;53.324;6.862;2023-02-13T07:43:44;36.10;;;19.92;;
52866;SDS011;38739;53.324;6.862;2023-02-13T07:46:10;35.45;;;20.13;;
52866;SDS011;38739;53.324;6.862;2023-02-13T07:48:36;41.00;;;21.40;;
52866;SDS011;38739;53.324;6.862;2023-02-13T07:51:04;37.78;;;21.05;;
52866;SDS011;38739;53.324;6.862;2023-02-13T07:53:31;35.95;;;20.63;;
52866;SDS011;38739;53.324;6.862;2023-02-13T07:55:56;38.00;;;20.80;;
52866;SDS011;38739;53.324;6.862;2023-02-13T07:58:22;35.15;;;20.23;;
52866;SDS011;38739;53.324;6.862;2023-02-13T08:00:48;37.25;;;20.98;;
52866;SDS011;38739;53.324;6.862;2023-02-13T08:03:17;36.50;;;20.60;;
52866;SDS011;38739;53.324;6.862;2023-02-13T08:05:42;33.78;;;20.00;;
52866;SDS011;38739;53.324;6.862;2023-02-13T08:08:12;38.30;;;20.15;;
52866;SDS011;38739;53.324;6.862;2023-02-13T08:10:56;34.03;;;19.90;;
52866;SDS011;38739;53.324;6.862;2023-02-13T08:13:48;34.22;;;20.00;;
52866;SDS011;38739;53.324;6.862;2023-02-13T08:16:20;37.22;;;19.98;;
52866;SDS011;38739;53.324;6.862;2023-02-13T08:18:49;36.13;;;20.05;;
52866;SDS011;38739;53.324;6.862;2023-02-13T08:21:14;36.53;;;20.48;;
52866;SDS011;38739;53.324;6.862;2023-02-13T08:23:40;37.13;;;19.40;;
52866;SDS011;38739;53.324;6.862;2023-02-13T08:26:06;35.85;;;20.00;;
52866;SDS011;38739;53.324;6.862;2023-02-13T08:28:31;35.60;;;19.30;;
52866;SDS011;38739;53.324;6.862;2023-02-13T08:30:57;36.25;;;19.75;;
52866;SDS011;38739;53.324;6.862;2023-02-13T08:33:25;36.72;;;20.55;;
52866;SDS011;38739;53.324;6.862;2023-02-13T08:35:51;33.30;;;19.60;;
52866;SDS011;38739;53.324;6.862;2023-02-13T08:38:17;34.70;;;20.35;;
52866;SDS011;38739;53.324;6.862;2023-02-13T08:40:42;35.83;;;20.38;;
52866;SDS011;38739;53.324;6.862;2023-02-13T08:43:08;38.10;;;20.40;;
52866;SDS011;38739;53.324;6.862;2023-02-13T08:45:34;37.15;;;19.95;;
52866;SDS011;38739;53.324;6.862;2023-02-13T08:48:03;34.05;;;19.33;;
52866;SDS011;38739;53.324;6.862;2023-02-13T08:50:28;35.65;;;18.80;;
52866;SDS011;38739;53.324;6.862;2023-02-13T08:52:54;37.13;;;19.98;;
52866;SDS011;38739;53.324;6.862;2023-02-13T08:55:21;33.50;;;18.77;;
52866;SDS011;38739;53.324;6.862;2023-02-13T08:57:47;36.38;;;18.88;;
52866;SDS011;38739;53.324;6.862;2023-02-13T09:00:13;31.38;;;18.65;;
52866;SDS011;38739;53.324;6.862;2023-02-13T09:02:42;34.72;;;19.42;;
52866;SDS011;38739;53.324;6.862;2023-02-13T09:05:07;33.65;;;19.58;;
52866;SDS011;38739;53.324;6.862;2023-02-13T09:07:33;32.78;;;18.27;;
52866;SDS011;38739;53.324;6.862;2023-02-13T09:10:00;34.65;;;19.25;;
52866;SDS011;38739;53.324;6.862;2023-02-13T09:12:26;32.55;;;18.38;;
52866;SDS011;38739;53.324;6.862;2023-02-13T09:14:51;36.22;;;20.00;;
52866;SDS011;38739;53.324;6.862;2023-02-13T09:17:17;35.03;;;19.00;;
52866;SDS011;38739;53.324;6.862;2023-02-13T09:19:43;34.50;;;19.50;;
52866;SDS011;38739;53.324;6.862;2023-02-13T09:22:10;33.20;;;19.52;;
52866;SDS011;38739;53.324;6.862;2023-02-13T09:24:36;31.00;;;17.63;;
52866;SDS011;38739;53.324;6.862;2023-02-13T09:27:03;29.92;;;17.88;;
52866;SDS011;38739;53.324;6.862;2023-02-13T09:29:29;30.65;;;18.05;;
52866;SDS011;38739;53.324;6.862;2023-02-13T09:31:57;32.65;;;17.95;;
52866;SDS011;38739;53.324;6.862;2023-02-13T09:34:23;33.97;;;18.02;;
52866;SDS011;38739;53.324;6.862;2023-02-13T09:36:52;31.48;;;18.10;;
52866;SDS011;38739;53.324;6.862;2023-02-13T09:39:19;29.70;;;17.38;;
52866;SDS011;38739;53.324;6.862;2023-02-13T09:41:45;34.45;;;18.73;;
52866;SDS011;38739;53.324;6.862;2023-02-13T09:44:15;33.75;;;18.98;;
52866;SDS011;38739;53.324;6.862;2023-02-13T09:47:06;29.77;;;16.77;;
52866;SDS011;38739;53.324;6.862;2023-02-13T09:49:39;29.25;;;17.13;;
52866;SDS011;38739;53.324;6.862;2023-02-13T09:52:09;32.22;;;18.05;;
52866;SDS011;38739;53.324;6.862;2023-02-13T09:54:39;29.40;;;17.05;;
52866;SDS011;38739;53.324;6.862;2023-02-13T09:57:11;31.13;;;17.73;;
52866;SDS011;38739;53.324;6.862;2023-02-13T10:00:06;29.98;;;17.33;;
52866;SDS011;38739;53.324;6.862;2023-02-13T10:08:33;27.05;;;15.93;;
52866;SDS011;38739;53.324;6.862;2023-02-13T10:14:14;27.63;;;16.48;;
52866;SDS011;38739;53.324;6.862;2023-02-13T10:16:53;29.02;;;16.95;;
52866;SDS011;38739;53.324;6.862;2023-02-13T10:22:00;28.15;;;16.70;;
52866;SDS011;38739;53.324;6.862;2023-02-13T10:27:38;34.20;;;17.33;;
52866;SDS011;38739;53.324;6.862;2023-02-13T10:30:21;33.28;;;17.23;;
52866;SDS011;38739;53.324;6.862;2023-02-13T10:35:49;28.75;;;16.08;;
52866;SDS011;38739;53.324;6.862;2023-02-13T10:38:32;30.52;;;16.90;;
52866;SDS011;38739;53.324;6.862;2023-02-13T10:41:03;31.08;;;17.67;;
52866;SDS011;38739;53.324;6.862;2023-02-13T10:43:33;29.70;;;16.55;;
52866;SDS011;38739;53.324;6.862;2023-02-13T10:46:21;32.03;;;16.60;;
52866;SDS011;38739;53.324;6.862;2023-02-13T10:52:09;27.00;;;16.23;;
52866;SDS011;38739;53.324;6.862;2023-02-13T11:02:49;28.05;;;16.73;;
52866;SDS011;38739;53.324;6.862;2023-02-13T11:05:21;34.70;;;16.77;;
52866;SDS011;38739;53.324;6.862;2023-02-13T11:07:49;32.33;;;17.45;;
52866;SDS011;38739;53.324;6.862;2023-02-13T11:10:19;26.65;;;16.35;;
52866;SDS011;38739;53.324;6.862;2023-02-13T11:12:47;29.83;;;17.38;;
52866;SDS011;38739;53.324;6.862;2023-02-13T11:15:20;28.65;;;17.38;;
52866;SDS011;38739;53.324;6.862;2023-02-13T11:17:58;30.10;;;17.23;;
52866;SDS011;38739;53.324;6.862;2023-02-13T11:20:38;27.85;;;16.65;;
52866;SDS011;38739;53.324;6.862;2023-02-13T11:26:02;31.92;;;17.88;;
52866;SDS011;38739;53.324;6.862;2023-02-13T11:28:37;29.60;;;17.75;;
52866;SDS011;38739;53.324;6.862;2023-02-13T11:31:27;29.35;;;17.70;;
52866;SDS011;38739;53.324;6.862;2023-02-13T11:39:37;28.85;;;17.60;;
52866;SDS011;38739;53.324;6.862;2023-02-13T11:42:14;27.58;;;16.52;;
52866;SDS011;38739;53.324;6.862;2023-02-13T11:44:41;27.98;;;16.63;;
52866;SDS011;38739;53.324;6.862;2023-02-13T11:47:08;28.90;;;17.38;;
52866;SDS011;38739;53.324;6.862;2023-02-13T11:49:35;32.90;;;18.83;;
52866;SDS011;38739;53.324;6.862;2023-02-13T11:52:06;32.53;;;18.75;;
52866;SDS011;38739;53.324;6.862;2023-02-13T11:54:59;33.85;;;19.95;;
52866;SDS011;38739;53.324;6.862;2023-02-13T11:59:58;34.47;;;19.30;;
52866;SDS011;38739;53.324;6.862;2023-02-13T12:02:27;40.92;;;20.67;;
52866;SDS011;38739;53.324;6.862;2023-02-13T12:05:17;34.40;;;19.65;;
52866;SDS011;38739;53.324;6.862;2023-02-13T12:07:43;34.53;;;19.48;;
52866;SDS011;38739;53.324;6.862;2023-02-13T12:10:18;33.90;;;18.75;;
52866;SDS011;38739;53.324;6.862;2023-02-13T12:15:44;34.88;;;19.17;;
52866;SDS011;38739;53.324;6.862;2023-02-13T12:24:26;36.38;;;19.45;;
52866;SDS011;38739;53.324;6.862;2023-02-13T12:27:35;36.03;;;19.85;;
52866;SDS011;38739;53.324;6.862;2023-02-13T12:30:34;38.67;;;19.27;;
52866;SDS011;38739;53.324;6.862;2023-02-13T12:55:08;34.95;;;19.08;;
52866;SDS011;38739;53.324;6.862;2023-02-13T12:57:41;34.13;;;18.20;;
52866;SDS011;38739;53.324;6.862;2023-02-13T13:14:17;31.13;;;17.45;;
52866;SDS011;38739;53.324;6.862;2023-02-13T13:17:29;38.90;;;17.80;;
52866;SDS011;38739;53.324;6.862;2023-02-13T13:20:17;31.77;;;17.88;;
52866;SDS011;38739;53.324;6.862;2023-02-13T13:23:30;33.33;;;17.48;;
52866;SDS011;38739;53.324;6.862;2023-02-13T13:26:13;31.27;;;17.65;;
52866;SDS011;38739;53.324;6.862;2023-02-13T13:28:48;36.40;;;18.17;;
52866;SDS011;38739;53.324;6.862;2023-02-13T13:31:23;29.65;;;17.77;;
52866;SDS011;38739;53.324;6.862;2023-02-13T13:34:05;30.52;;;17.52;;
52866;SDS011;38739;53.324;6.862;2023-02-13T13:49:51;34.55;;;17.73;;
52866;SDS011;38739;53.324;6.862;2023-02-13T13:54:56;30.25;;;18.10;;
52866;SDS011;38739;53.324;6.862;2023-02-13T13:59:55;32.88;;;18.20;;
52866;SDS011;38739;53.324;6.862;2023-02-13T14:07:36;31.30;;;17.77;;
52866;SDS011;38739;53.324;6.862;2023-02-13T14:10:07;30.33;;;17.90;;
52866;SDS011;38739;53.324;6.862;2023-02-13T14:28:40;37.75;;;22.42;;
52866;SDS011;38739;53.324;6.862;2023-02-13T14:31:17;36.05;;;21.40;;
52866;SDS011;38739;53.324;6.862;2023-02-13T14:36:36;35.15;;;20.40;;
52866;SDS011;38739;53.324;6.862;2023-02-13T14:47:11;34.03;;;19.42;;
52866;SDS011;38739;53.324;6.862;2023-02-13T14:49:45;33.58;;;19.13;;
52866;SDS011;38739;53.324;6.862;2023-02-13T14:52:20;38.80;;;20.08;;
52866;SDS011;38739;53.324;6.862;2023-02-13T14:55:33;34.42;;;19.55;;
52866;SDS011;38739;53.324;6.862;2023-02-13T14:58:06;35.30;;;19.33;;
52866;SDS011;38739;53.324;6.862;2023-02-13T15:00:43;35.58;;;20.00;;
52866;SDS011;38739;53.324;6.862;2023-02-13T15:03:24;36.92;;;20.52;;
52866;SDS011;38739;53.324;6.862;2023-02-13T15:06:09;31.67;;;19.23;;
52866;SDS011;38739;53.324;6.862;2023-02-13T15:08:49;34.85;;;20.45;;
52866;SDS011;38739;53.324;6.862;2023-02-13T15:11:33;36.40;;;20.90;;
52866;SDS011;38739;53.324;6.862;2023-02-13T15:14:17;32.38;;;19.17;;
52866;SDS011;38739;53.324;6.862;2023-02-13T15:16:44;33.03;;;18.70;;
52866;SDS011;38739;53.324;6.862;2023-02-13T15:19:18;35.33;;;20.00;;
52866;SDS011;38739;53.324;6.862;2023-02-13T15:21:47;33.22;;;19.83;;
52866;SDS011;38739;53.324;6.862;2023-02-13T15:24:16;34.95;;;20.23;;
52866;SDS011;38739;53.324;6.862;2023-02-13T15:26:54;32.85;;;20.52;;
52866;SDS011;38739;53.324;6.862;2023-02-13T15:29:27;36.30;;;19.90;;
52866;SDS011;38739;53.324;6.862;2023-02-13T15:31:54;37.15;;;20.52;;
52866;SDS011;38739;53.324;6.862;2023-02-13T15:34:27;34.90;;;19.48;;
52866;SDS011;38739;53.324;6.862;2023-02-13T15:37:00;34.45;;;19.50;;
52866;SDS011;38739;53.324;6.862;2023-02-13T15:39:30;36.58;;;20.48;;
52866;SDS011;38739;53.324;6.862;2023-02-13T15:42:00;34.42;;;19.73;;
52866;SDS011;38739;53.324;6.862;2023-02-13T15:44:37;35.58;;;20.27;;
52866;SDS011;38739;53.324;6.862;2023-02-13T15:49:42;33.50;;;19.63;;
52866;SDS011;38739;53.324;6.862;2023-02-13T15:52:15;33.88;;;19.88;;
52866;SDS011;38739;53.324;6.862;2023-02-13T15:55:00;32.35;;;19.67;;
52866;SDS011;38739;53.324;6.862;2023-02-13T15:57:26;33.35;;;19.25;;
52866;SDS011;38739;53.324;6.862;2023-02-13T15:59:56;37.10;;;20.27;;
52866;SDS011;38739;53.324;6.862;2023-02-13T16:02:29;36.08;;;20.40;;
52866;SDS011;38739;53.324;6.862;2023-02-13T16:05:05;34.88;;;20.35;;
52866;SDS011;38739;53.324;6.862;2023-02-13T16:07:47;33.15;;;19.77;;
52866;SDS011;38739;53.324;6.862;2023-02-13T16:10:15;30.33;;;18.90;;
52866;SDS011;38739;53.324;6.862;2023-02-13T16:12:57;34.53;;;19.83;;
52866;SDS011;38739;53.324;6.862;2023-02-13T16:15:26;33.40;;;19.27;;
52866;SDS011;38739;53.324;6.862;2023-02-13T16:17:54;34.55;;;20.20;;
52866;SDS011;38739;53.324;6.862;2023-02-13T16:20:21;36.75;;;20.90;;
52866;SDS011;38739;53.324;6.862;2023-02-13T16:30:32;37.08;;;21.15;;
52866;SDS011;38739;53.324;6.862;2023-02-13T16:35:44;36.53;;;21.15;;
52866;SDS011;38739;53.324;6.862;2023-02-13T16:38:47;39.53;;;22.90;;
52866;SDS011;38739;53.324;6.862;2023-02-13T16:41:07;37.58;;;21.50;;
52866;SDS011;38739;53.324;6.862;2023-02-13T16:43:57;37.45;;;22.30;;
52866;SDS011;38739;53.324;6.862;2023-02-13T16:46:32;35.35;;;20.30;;
52866;SDS011;38739;53.324;6.862;2023-02-13T16:49:05;38.40;;;21.98;;
52866;SDS011;38739;53.324;6.862;2023-02-13T16:56:46;37.92;;;21.00;;
52866;SDS011;38739;53.324;6.862;2023-02-13T17:07:36;40.35;;;21.35;;
52866;SDS011;38739;53.324;6.862;2023-02-13T17:10:25;38.97;;;22.15;;
52866;SDS011;38739;53.324;6.862;2023-02-13T17:13:01;36.53;;;21.48;;
52866;SDS011;38739;53.324;6.862;2023-02-13T17:15:40;39.35;;;22.20;;
52866;SDS011;38739;53.324;6.862;2023-02-13T17:18:14;41.20;;;23.08;;
52866;SDS011;38739;53.324;6.862;2023-02-13T17:20:43;40.15;;;22.25;;
52866;SDS011;38739;53.324;6.862;2023-02-13T17:23:27;38.13;;;21.55;;
52866;SDS011;38739;53.324;6.862;2023-02-13T17:25:55;40.28;;;21.95;;
52866;SDS011;38739;53.324;6.862;2023-02-13T17:28:22;41.55;;;22.10;;
52866;SDS011;38739;53.324;6.862;2023-02-13T17:30:51;36.88;;;21.17;;
52866;SDS011;38739;53.324;6.862;2023-02-13T17:33:21;38.03;;;20.58;;
52866;SDS011;38739;53.324;6.862;2023-02-13T17:35:48;38.58;;;21.35;;
52866;SDS011;38739;53.324;6.862;2023-02-13T17:38:14;40.65;;;22.50;;
52866;SDS011;38739;53.324;6.862;2023-02-13T17:40:43;39.97;;;22.00;;
52866;SDS011;38739;53.324;6.862;2023-02-13T17:43:14;37.10;;;21.15;;
52866;SDS011;38739;53.324;6.862;2023-02-13T17:45:44;40.72;;;22.75;;
52866;SDS011;38739;53.324;6.862;2023-02-13T17:48:10;40.75;;;22.30;;
52866;SDS011;38739;53.324;6.862;2023-02-13T17:50:35;38.05;;;21.58;;
52866;SDS011;38739;53.324;6.862;2023-02-13T17:53:05;40.67;;;22.83;;
52866;SDS011;38739;53.324;6.862;2023-02-13T17:55:39;40.72;;;22.85;;
52866;SDS011;38739;53.324;6.862;2023-02-13T17:58:04;40.00;;;22.30;;
52866;SDS011;38739;53.324;6.862;2023-02-13T18:00:30;42.28;;;22.45;;
52866;SDS011;38739;53.324;6.862;2023-02-13T18:02:58;40.83;;;22.55;;
52866;SDS011;38739;53.324;6.862;2023-02-13T18:05:27;39.35;;;21.95;;
52866;SDS011;38739;53.324;6.862;2023-02-13T18:07:53;40.53;;;22.77;;
52866;SDS011;38739;53.324;6.862;2023-02-13T18:10:23;41.42;;;22.73;;
52866;SDS011;38739;53.324;6.862;2023-02-13T18:15:21;40.38;;;22.42;;
52866;SDS011;38739;53.324;6.862;2023-02-13T18:18:13;40.50;;;23.30;;